createdAt,value
2023-03-04T00:01:48.235Z,49.53
2023-03-04T00:04:19.773Z,46.43
2023-03-04T00:06:50.771Z,50.53
2023-03-04T00:09:21.908Z,48.17
2023-03-04T00:11:52.778Z,49.50
2023-03-04T00:14:24.990Z,44.60
2023-03-04T00:16:55.902Z,49.33
2023-03-04T00:19:26.934Z,45.47
2023-03-04T00:21:58.127Z,51.13
2023-03-04T00:24:29.029Z,49.67
2023-03-04T00:26:59.970Z,46.63
2023-03-04T00:29:30.809Z,45.63
2023-03-04T00:32:01.871Z,45.00
2023-03-04T00:34:32.997Z,49.47
2023-03-04T00:37:04.234Z,47.93
2023-03-04T00:39:35.067Z,52.23
2023-03-04T00:42:06.263Z,49.43
2023-03-04T00:44:37.186Z,47.73
2023-03-04T00:47:08.245Z,47.63
2023-03-04T00:49:39.200Z,42.77
2023-03-04T00:52:10.739Z,44.50
2023-03-04T00:54:41.922Z,48.37
2023-03-04T00:57:13.101Z,45.60
2023-03-04T00:59:44.353Z,54.40
2023-03-04T01:02:15.750Z,49.00
2023-03-04T01:04:46.834Z,49.03
2023-03-04T01:07:17.931Z,46.53
2023-03-04T01:09:48.786Z,52.40
2023-03-04T01:12:19.668Z,48.10
2023-03-04T01:14:50.744Z,46.70
2023-03-04T01:17:22.100Z,50.87
2023-03-04T01:19:53.112Z,46.70
2023-03-04T01:22:23.783Z,46.93
2023-03-04T01:24:56.483Z,49.50
2023-03-04T01:27:27.032Z,48.70
2023-03-04T01:29:57.593Z,44.50
2023-03-04T01:32:28.194Z,50.17
2023-03-04T01:34:58.970Z,52.67
2023-03-04T01:37:29.720Z,49.63
2023-03-04T01:40:00.256Z,54.50
2023-03-04T01:42:33.510Z,58.10
2023-03-04T01:45:05.444Z,48.33
2023-03-04T01:47:37.610Z,56.10
2023-03-04T01:50:14.845Z,58.93
2023-03-04T01:52:45.856Z,52.23
2023-03-04T01:55:20.997Z,56.20
2023-03-04T01:57:53.138Z,54.53
2023-03-04T02:00:28.565Z,48.93
2023-03-04T02:03:01.662Z,55.57
2023-03-04T02:05:32.888Z,51.60
2023-03-04T02:08:04.940Z,56.40
2023-03-04T02:10:36.179Z,51.87
2023-03-04T02:13:07.740Z,53.53
2023-03-04T02:15:40.028Z,49.93
2023-03-04T02:18:17.023Z,51.23
2023-03-04T02:20:56.438Z,55.80
2023-03-04T02:23:31.916Z,50.77
2023-03-04T02:26:16.855Z,54.90
2023-03-04T02:28:49.606Z,51.60
2023-03-04T02:31:26.913Z,51.23
2023-03-04T02:34:00.455Z,51.43
2023-03-04T02:36:32.322Z,43.80
2023-03-04T02:39:07.021Z,43.43
2023-03-04T02:41:38.531Z,53.60
2023-03-04T02:44:18.668Z,49.27
2023-03-04T02:46:51.146Z,54.17
2023-03-04T02:49:22.813Z,55.17
2023-03-04T02:51:57.191Z,50.37
2023-03-04T02:54:28.214Z,52.13
2023-03-04T02:57:01.862Z,47.63
2023-03-04T02:59:33.037Z,54.53
2023-03-04T03:02:04.033Z,48.47
2023-03-04T03:04:35.835Z,55.60
2023-03-04T03:07:07.109Z,54.83
2023-03-04T03:09:38.143Z,51.47
2023-03-04T03:12:09.885Z,52.10
2023-03-04T03:14:40.813Z,51.40
2023-03-04T03:17:11.939Z,49.47
2023-03-04T03:19:42.901Z,52.33
2023-03-04T03:22:13.842Z,48.50
2023-03-04T03:24:44.854Z,52.47
2023-03-04T03:27:16.041Z,48.10
2023-03-04T03:29:46.970Z,53.47
2023-03-04T03:32:18.145Z,49.67
2023-03-04T03:34:49.248Z,48.27
2023-03-04T03:37:20.840Z,48.60
2023-03-04T03:39:51.754Z,51.60
2023-03-04T03:42:22.705Z,53.67
2023-03-04T03:44:53.605Z,51.37
2023-03-04T03:47:24.696Z,48.50
2023-03-04T03:49:55.715Z,50.17
2023-03-04T03:52:26.558Z,45.13
2023-03-04T03:54:57.445Z,53.43
2023-03-04T03:57:28.424Z,48.43
2023-03-04T03:59:59.275Z,52.80
2023-03-04T04:02:30.765Z,45.60
2023-03-04T04:05:01.929Z,52.47
2023-03-04T04:07:33.004Z,50.47
2023-03-04T04:10:04.353Z,50.57
2023-03-04T04:12:35.478Z,50.13
2023-03-04T04:15:07.895Z,52.03
2023-03-04T04:17:39.052Z,49.00
2023-03-04T04:20:12.761Z,52.50
2023-03-04T04:22:43.761Z,50.13
2023-03-04T04:25:14.705Z,46.60
2023-03-04T04:27:45.625Z,58.50
2023-03-04T04:30:17.442Z,50.57
2023-03-04T04:32:48.432Z,47.00
2023-03-04T04:35:19.587Z,52.10
2023-03-04T04:37:50.549Z,54.40
2023-03-04T04:40:21.911Z,48.77
2023-03-04T04:42:52.757Z,47.57
2023-03-04T04:45:25.073Z,51.20
2023-03-04T04:47:57.589Z,46.47
2023-03-04T04:50:31.174Z,48.23
2023-03-04T04:53:01.777Z,52.90
2023-03-04T04:55:36.391Z,50.97
2023-03-04T04:58:09.649Z,49.07
2023-03-04T05:00:40.733Z,47.37
2023-03-04T05:03:11.746Z,49.43
2023-03-04T05:05:42.716Z,49.23
2023-03-04T05:08:13.757Z,49.93
2023-03-04T05:10:44.697Z,50.20
2023-03-04T05:13:15.609Z,46.33
2023-03-04T05:15:46.799Z,42.80
2023-03-04T05:18:17.717Z,45.80
2023-03-04T05:20:52.626Z,53.87
2023-03-04T05:23:24.452Z,50.70
2023-03-04T05:25:55.611Z,40.13
2023-03-04T05:28:26.573Z,46.30
2023-03-04T05:30:57.498Z,50.07
2023-03-04T05:33:28.994Z,51.03
2023-03-04T05:36:00.718Z,50.40
2023-03-04T05:38:31.436Z,49.40
2023-03-04T05:41:03.539Z,48.83
2023-03-04T05:43:37.008Z,47.17
2023-03-04T05:46:08.043Z,48.43
2023-03-04T05:48:38.703Z,46.73
2023-03-04T05:51:09.610Z,47.90
2023-03-04T05:53:40.495Z,50.77
2023-03-04T05:56:13.784Z,48.60
2023-03-04T05:58:45.040Z,48.77
2023-03-04T06:01:16.209Z,49.80
2023-03-04T06:03:48.773Z,50.70
2023-03-04T06:06:19.851Z,51.43
2023-03-04T06:08:50.703Z,50.63
2023-03-04T06:11:21.697Z,52.73
2023-03-04T06:13:52.756Z,49.27
2023-03-04T06:16:24.973Z,56.50
2023-03-04T06:18:55.738Z,50.93
2023-03-04T06:21:26.567Z,47.87
2023-03-04T06:23:57.437Z,51.77
2023-03-04T06:26:28.377Z,48.83
2023-03-04T06:28:59.195Z,50.43
2023-03-04T06:31:30.399Z,50.40
2023-03-04T06:34:01.394Z,49.63
2023-03-04T06:36:32.301Z,57.90
2023-03-04T06:39:04.759Z,57.90
2023-03-04T06:41:36.726Z,48.50
2023-03-04T06:44:08.074Z,51.50
2023-03-04T06:46:40.097Z,53.60
2023-03-04T06:49:11.257Z,48.03
2023-03-04T06:51:42.365Z,50.70
2023-03-04T06:54:13.481Z,51.23
2023-03-04T06:56:45.518Z,51.73
2023-03-04T06:59:17.027Z,51.83
2023-03-04T07:01:48.196Z,57.50
2023-03-04T07:04:19.122Z,50.43
2023-03-04T07:06:50.186Z,48.30
2023-03-04T07:09:21.121Z,52.77
2023-03-04T07:11:52.119Z,58.33
2023-03-04T07:14:24.316Z,63.93
2023-03-04T07:17:13.702Z,65.27
2023-03-04T07:19:44.896Z,60.57
2023-03-04T07:22:15.790Z,59.17
2023-03-04T07:24:46.809Z,75.27
2023-03-04T07:27:17.734Z,74.67
2023-03-04T07:29:48.622Z,83.77
2023-03-04T07:32:19.725Z,74.47
2023-03-04T07:34:51.094Z,81.57
2023-03-04T07:37:22.258Z,76.20
2023-03-04T07:39:53.168Z,78.17
2023-03-04T07:42:24.188Z,70.90
2023-03-04T07:44:55.479Z,72.27
2023-03-04T07:47:28.476Z,69.20
2023-03-04T07:49:59.307Z,77.07
2023-03-04T07:52:30.210Z,73.60
2023-03-04T07:55:01.256Z,66.53
2023-03-04T07:57:32.204Z,68.53
2023-03-04T08:00:22.663Z,58.30
2023-03-04T08:02:53.778Z,62.87
2023-03-04T08:08:03.050Z,63.93
2023-03-04T08:10:33.712Z,60.30
2023-03-04T08:13:04.905Z,60.97
2023-03-04T08:15:37.775Z,62.60
2023-03-04T08:18:08.454Z,54.77
2023-03-04T08:20:39.183Z,59.30
2023-03-04T08:23:09.752Z,54.40
2023-03-04T08:25:42.784Z,55.07
2023-03-04T08:28:14.012Z,58.77
2023-03-04T08:30:44.730Z,57.37
2023-03-04T08:33:15.396Z,56.57
2023-03-04T08:35:46.098Z,56.77
2023-03-04T08:38:16.663Z,58.53
2023-03-04T08:40:47.279Z,60.90
2023-03-04T08:43:17.844Z,58.67
2023-03-04T08:45:48.594Z,55.97
2023-03-04T08:48:19.867Z,56.07
2023-03-04T08:50:51.520Z,59.00
2023-03-04T08:53:23.550Z,63.37
2023-03-04T08:55:55.084Z,58.57
2023-03-04T08:58:25.770Z,57.50
2023-03-04T09:00:56.642Z,52.90
2023-03-04T09:03:28.029Z,60.73
2023-03-04T09:05:58.961Z,56.07
2023-03-04T09:08:30.024Z,60.43
2023-03-04T09:11:00.765Z,52.17
2023-03-04T09:13:33.144Z,55.80
2023-03-04T09:16:04.345Z,52.20
2023-03-04T09:18:35.007Z,55.23
2023-03-04T09:21:06.039Z,49.20
2023-03-04T09:23:36.686Z,56.57
2023-03-04T09:29:00.406Z,54.90
2023-03-04T09:31:32.316Z,53.00
2023-03-04T09:34:03.249Z,51.13
2023-03-04T09:36:34.145Z,47.80
2023-03-04T09:39:05.871Z,47.20
2023-03-04T09:44:23.441Z,45.13
2023-03-04T09:46:58.535Z,49.10
2023-03-04T09:49:33.507Z,48.90
2023-03-04T09:52:10.511Z,44.70
2023-03-04T09:55:06.604Z,46.07
2023-03-04T09:57:49.827Z,43.27
2023-03-04T10:00:25.911Z,44.13
2023-03-04T10:03:08.240Z,47.27
2023-03-04T10:05:42.054Z,48.33
2023-03-04T10:08:41.657Z,45.43
2023-03-04T10:11:16.648Z,46.07
2023-03-04T10:13:54.395Z,46.10
2023-03-04T10:16:28.193Z,45.20
2023-03-04T10:19:13.545Z,49.13
2023-03-04T10:21:47.374Z,39.87
2023-03-04T10:24:22.146Z,41.97
2023-03-04T10:26:56.300Z,47.97
2023-03-04T10:29:28.901Z,45.33
2023-03-04T10:32:00.063Z,45.63
2023-03-04T10:34:31.084Z,44.20
2023-03-04T10:37:03.583Z,44.77
2023-03-04T10:39:36.218Z,44.67
2023-03-04T10:42:08.937Z,43.37
2023-03-04T10:44:42.649Z,43.07
2023-03-04T10:47:16.455Z,44.33
2023-03-04T10:49:54.933Z,42.70
2023-03-04T10:52:36.765Z,44.23
2023-03-04T10:55:16.308Z,39.83
2023-03-04T10:58:07.335Z,46.97
2023-03-04T11:00:41.168Z,44.07
2023-03-04T11:03:32.807Z,46.70
2023-03-04T11:06:39.554Z,44.77
2023-03-04T11:12:01.800Z,40.63
2023-03-04T11:14:35.535Z,38.10
2023-03-04T11:17:15.032Z,42.30
2023-03-04T11:19:48.979Z,40.43
2023-03-04T11:22:22.838Z,43.27
2023-03-04T11:25:00.391Z,37.63
2023-03-04T11:27:39.121Z,42.87
2023-03-04T11:30:31.491Z,42.93
2023-03-04T11:33:09.739Z,42.40
2023-03-04T11:35:46.941Z,41.43
2023-03-04T11:38:21.291Z,44.60
2023-03-04T11:40:56.834Z,41.00
2023-03-04T11:43:31.769Z,41.33
2023-03-04T11:46:52.809Z,42.77
2023-03-04T11:49:42.239Z,41.50
2023-03-04T11:52:17.843Z,46.03
2023-03-04T11:54:52.252Z,40.37
2023-03-04T11:57:27.358Z,43.13
2023-03-04T12:00:06.083Z,39.20
2023-03-04T12:05:27.007Z,42.97
2023-03-04T12:08:12.512Z,41.80
2023-03-04T12:10:47.457Z,39.67
2023-03-04T12:13:34.975Z,40.57
2023-03-04T12:16:16.126Z,44.33
2023-03-04T12:18:56.017Z,40.23
2023-03-04T12:21:35.135Z,47.40
2023-03-04T12:27:20.166Z,33.83
2023-03-04T12:29:56.102Z,34.67
2023-03-04T12:32:31.845Z,38.33
2023-03-04T12:35:31.866Z,41.20
2023-03-04T12:38:34.836Z,37.70
2023-03-04T12:41:14.447Z,38.37
2023-03-04T12:43:54.247Z,38.43
2023-03-04T12:46:46.382Z,38.63
2023-03-04T12:49:28.168Z,36.70
2023-03-04T12:52:03.569Z,37.03
2023-03-04T12:54:37.700Z,40.63
2023-03-04T12:57:12.416Z,42.90
2023-03-04T12:59:47.185Z,39.53
2023-03-04T13:02:46.062Z,39.17
2023-03-04T13:05:30.830Z,35.80
2023-03-04T13:08:07.388Z,36.33
2023-03-04T13:10:38.353Z,39.20
2023-03-04T13:13:12.348Z,37.77
2023-03-04T13:15:43.414Z,41.20
2023-03-04T13:18:36.266Z,37.80
2023-03-04T13:21:37.329Z,42.43
2023-03-04T13:24:44.367Z,38.70
2023-03-04T13:27:50.445Z,44.20
2023-03-04T13:30:48.007Z,37.27
2023-03-04T13:37:00.236Z,42.90
2023-03-04T13:39:37.880Z,41.70
2023-03-04T13:42:27.585Z,39.13
2023-03-04T13:45:02.832Z,39.80
2023-03-04T13:47:50.203Z,39.17
2023-03-04T13:50:49.826Z,42.23
2023-03-04T13:53:42.849Z,41.67
2023-03-04T13:56:37.009Z,41.73
2023-03-04T13:59:26.588Z,42.67
2023-03-04T14:02:06.687Z,42.87
2023-03-04T14:04:39.803Z,41.17
2023-03-04T14:07:25.004Z,43.23
2023-03-04T14:10:02.688Z,44.23
2023-03-04T14:12:37.076Z,42.07
2023-03-04T14:15:17.755Z,44.63
2023-03-04T14:17:52.387Z,42.93
2023-03-04T14:20:31.017Z,41.63
2023-03-04T14:23:05.318Z,47.58
2023-03-04T14:25:37.506Z,41.60
2023-03-04T14:28:13.700Z,47.47
2023-03-04T14:30:47.504Z,40.50
2023-03-04T14:33:22.343Z,45.97
2023-03-04T14:36:01.417Z,45.33
2023-03-04T14:38:39.138Z,43.87
2023-03-04T14:43:50.933Z,44.10
2023-03-04T14:46:42.156Z,45.13
2023-03-04T14:49:18.271Z,47.77
2023-03-04T14:51:52.533Z,46.77
2023-03-04T14:54:33.031Z,51.20
2023-03-04T14:57:26.966Z,51.23
2023-03-04T14:59:58.371Z,43.20
2023-03-04T15:02:34.488Z,47.13
2023-03-04T15:05:16.918Z,51.57
2023-03-04T15:07:45.322Z,41.40
2023-03-04T15:10:17.656Z,44.63
2023-03-04T15:12:53.319Z,45.27
2023-03-04T15:15:41.140Z,49.23
2023-03-04T15:18:26.532Z,50.97
2023-03-04T15:20:59.710Z,47.13
2023-03-04T15:23:49.168Z,49.60
2023-03-04T15:26:20.112Z,48.53
2023-03-04T15:28:50.962Z,49.97
2023-03-04T15:31:23.921Z,47.70
2023-03-04T15:33:55.035Z,48.45
2023-03-04T15:36:26.279Z,48.60
2023-03-04T15:38:57.989Z,50.70
2023-03-04T15:41:30.575Z,50.73
2023-03-04T15:44:02.788Z,47.67
2023-03-04T15:46:33.928Z,48.23
2023-03-04T15:49:05.060Z,48.70
2023-03-04T15:51:37.598Z,48.80
2023-03-04T15:56:48.645Z,47.97
2023-03-04T15:59:20.416Z,52.30
2023-03-04T16:01:51.437Z,46.63
2023-03-04T16:04:23.423Z,54.10
2023-03-04T16:06:58.095Z,51.00
2023-03-04T16:09:30.151Z,48.97
2023-03-04T16:14:39.354Z,49.50
2023-03-04T16:17:11.337Z,52.77
2023-03-04T16:19:42.356Z,54.60
2023-03-04T16:24:55.055Z,46.77
2023-03-04T16:27:26.663Z,45.70
2023-03-04T16:29:57.709Z,53.13
2023-03-04T16:32:30.635Z,46.17
2023-03-04T16:35:02.784Z,48.33
2023-03-04T16:40:16.585Z,43.80
2023-03-04T16:42:47.795Z,45.33
2023-03-04T16:45:22.499Z,43.30
2023-03-04T16:47:53.982Z,42.30
2023-03-04T16:50:28.428Z,44.37
2023-03-04T16:52:59.367Z,45.30
2023-03-04T16:55:31.938Z,46.97
2023-03-04T16:58:02.538Z,51.83
2023-03-04T17:00:33.812Z,45.63
2023-03-04T17:03:04.505Z,42.27
2023-03-04T17:05:35.670Z,45.30
2023-03-04T17:10:43.477Z,40.40
2023-03-04T17:13:14.648Z,44.17
2023-03-04T17:15:47.082Z,43.70
2023-03-04T17:18:17.977Z,47.13
2023-03-04T17:20:48.857Z,46.87
2023-03-04T17:23:19.825Z,43.10
2023-03-04T17:25:57.797Z,43.70
2023-03-04T17:28:29.443Z,47.03
2023-03-04T17:33:36.960Z,43.43
2023-03-04T17:36:12.191Z,44.47
2023-03-04T17:38:43.777Z,45.13
2023-03-04T17:41:18.489Z,43.10
2023-03-04T17:43:51.177Z,45.53
2023-03-04T17:46:24.304Z,48.40
2023-03-04T17:48:56.949Z,44.90
2023-03-04T17:51:33.830Z,43.70
2023-03-04T17:54:05.738Z,46.70
2023-03-04T17:56:39.810Z,45.70
2023-03-04T17:59:13.586Z,46.97
2023-03-04T18:01:45.692Z,44.23
2023-03-04T18:04:17.595Z,49.00
2023-03-04T18:06:48.599Z,45.53
2023-03-04T18:09:19.422Z,46.40
2023-03-04T18:11:50.313Z,47.50
2023-03-04T18:14:21.370Z,47.47
2023-03-04T18:16:53.532Z,51.17
2023-03-04T18:19:24.435Z,49.03
2023-03-04T18:21:55.311Z,50.03
2023-03-04T18:24:26.534Z,48.43
2023-03-04T18:26:58.169Z,52.77
2023-03-04T18:29:29.891Z,59.47
2023-03-04T18:32:00.673Z,54.53
2023-03-04T18:34:31.634Z,47.30
2023-03-04T18:37:04.069Z,51.00
2023-03-04T18:39:34.858Z,53.63
2023-03-04T18:42:06.144Z,50.73
2023-03-04T18:44:37.329Z,51.93
2023-03-04T18:47:08.348Z,51.07
2023-03-04T18:49:40.871Z,49.63
2023-03-04T18:52:13.609Z,52.27
2023-03-04T18:54:44.469Z,52.93
2023-03-04T18:57:17.616Z,53.03
2023-03-04T18:59:51.563Z,49.10
2023-03-04T19:02:42.634Z,49.13
2023-03-04T19:05:16.044Z,53.63
2023-03-04T19:07:47.010Z,52.23
2023-03-04T19:10:18.319Z,54.10
2023-03-04T19:12:49.157Z,51.00
2023-03-04T19:15:20.647Z,52.13
2023-03-04T19:17:51.583Z,49.67
2023-03-04T19:20:22.858Z,47.63
2023-03-04T19:22:54.436Z,59.67
2023-03-04T19:25:25.418Z,56.07
2023-03-04T19:27:56.600Z,51.57
2023-03-04T19:30:27.970Z,51.27
2023-03-04T19:32:59.280Z,51.33
2023-03-04T19:35:32.612Z,52.43
2023-03-04T19:38:03.936Z,52.33
2023-03-04T19:40:34.797Z,51.30
2023-03-04T19:43:05.727Z,47.57
2023-03-04T19:45:36.854Z,52.23
2023-03-04T19:48:08.474Z,49.30
2023-03-04T19:50:39.193Z,52.87
2023-03-04T19:53:11.827Z,50.30
2023-03-04T19:55:42.825Z,49.37
2023-03-04T19:58:13.779Z,57.70
2023-03-04T20:00:44.773Z,49.43
2023-03-04T20:03:16.067Z,48.47
2023-03-04T20:05:48.755Z,50.57
2023-03-04T20:08:19.820Z,47.17
2023-03-04T20:10:50.648Z,47.40
2023-03-04T20:13:21.732Z,43.97
2023-03-04T20:15:54.080Z,52.20
2023-03-04T20:18:25.817Z,50.00
2023-03-04T20:20:59.436Z,49.27
2023-03-04T20:23:30.640Z,53.43
2023-03-04T20:26:02.845Z,49.03
2023-03-04T20:28:34.060Z,51.53
2023-03-04T20:31:18.650Z,53.90
2023-03-04T20:33:51.142Z,50.63
2023-03-04T20:36:23.973Z,53.63
2023-03-04T20:39:02.012Z,50.88
2023-03-04T20:41:28.762Z,38.03
2023-03-04T20:43:59.972Z,42.60
2023-03-04T20:46:38.237Z,44.73
2023-03-04T20:49:28.409Z,39.17
2023-03-04T20:52:02.720Z,41.77
2023-03-04T20:57:12.053Z,30.27
2023-03-04T20:59:42.973Z,36.60
2023-03-04T21:02:18.479Z,39.60
2023-03-04T21:04:49.227Z,33.07
2023-03-04T21:07:20.349Z,28.63
2023-03-04T21:09:51.231Z,30.87
2023-03-04T21:12:22.703Z,28.37
2023-03-04T21:14:53.633Z,27.00
2023-03-04T21:17:25.099Z,26.57
2023-03-04T21:19:55.914Z,32.00
2023-03-04T21:22:27.093Z,26.77
2023-03-04T21:24:57.892Z,25.77
2023-03-04T21:27:28.788Z,26.63
2023-03-04T21:30:02.052Z,25.00
2023-03-04T21:32:33.353Z,29.47
2023-03-04T21:35:04.116Z,24.73
2023-03-04T21:37:35.858Z,28.07
2023-03-04T21:40:08.854Z,25.27
2023-03-04T21:42:39.773Z,27.23
2023-03-04T21:45:13.307Z,24.50
2023-03-04T21:47:44.876Z,27.43
2023-03-04T21:50:15.875Z,26.37
2023-03-04T21:52:46.756Z,33.07
2023-03-04T21:57:55.029Z,31.27
2023-03-04T22:00:26.470Z,26.03
2023-03-04T22:02:57.528Z,27.07
2023-03-04T22:05:28.604Z,30.53
2023-03-04T22:07:59.569Z,25.80
2023-03-04T22:10:31.281Z,23.97
2023-03-04T22:13:02.245Z,27.13
2023-03-04T22:15:34.366Z,28.03
2023-03-04T22:18:05.737Z,28.40
2023-03-04T22:20:37.833Z,24.20
2023-03-04T22:23:09.486Z,25.07
2023-03-04T22:25:42.088Z,26.47
2023-03-04T22:28:13.320Z,29.87
2023-03-04T22:30:44.104Z,26.47
2023-03-04T22:33:15.037Z,23.53
2023-03-04T22:35:46.045Z,23.40
2023-03-04T22:38:17.134Z,22.80
2023-03-04T22:40:49.025Z,28.83
2023-03-04T22:43:20.088Z,26.90
2023-03-04T22:45:51.381Z,27.67
2023-03-04T22:48:22.315Z,20.83
2023-03-04T22:50:53.188Z,23.23
2023-03-04T22:53:25.935Z,22.67
2023-03-04T22:56:00.792Z,22.47
2023-03-04T22:58:31.760Z,25.13
2023-03-04T23:01:03.474Z,24.70
2023-03-04T23:03:34.938Z,22.30
2023-03-04T23:06:09.367Z,22.33
2023-03-04T23:08:41.645Z,25.40
2023-03-04T23:11:13.619Z,24.70
2023-03-04T23:13:44.936Z,20.77
2023-03-04T23:16:18.021Z,23.63
2023-03-04T23:18:50.153Z,25.97
2023-03-04T23:21:22.911Z,21.97
2023-03-04T23:23:54.499Z,22.33
2023-03-04T23:26:28.837Z,22.70
2023-03-04T23:29:01.489Z,20.93
2023-03-04T23:31:33.397Z,23.07
2023-03-04T23:34:05.257Z,22.27
2023-03-04T23:36:38.335Z,23.20
2023-03-04T23:39:10.185Z,27.50
2023-03-04T23:41:41.271Z,23.33
2023-03-04T23:44:14.051Z,23.23
2023-03-04T23:46:45.111Z,21.77
2023-03-04T23:49:18.079Z,24.90
2023-03-04T23:51:49.196Z,25.83
2023-03-04T23:54:20.178Z,24.00
2023-03-04T23:56:51.255Z,25.23
2023-03-04T23:59:22.269Z,23.93
